Bucyrus, North Dakota
Current Conditions -  °F | °C
As of 1:53 PM on Thursday 18 Dec 2014 (Local Time) from KHEI Reporting Station
Overcast Overcast  
Wind Chill: 27°   Ceiling: 6500
Heat Index: 32°   Visibility: 10mi
Dew Point: 27°   Wind: 5mph
Humidity: 82%   Direction: 210°SSW
Pressure: 29.95"   Gusts: NA
Location:  46.0942°N, 102.462°W
Report Text: KHEI 182053Z AUTO 21004KT 10SM OVC065 00/M03 A2995 RMK AO2 SLP176 T00001028 58007
Loading
Personal Weather Stations






























Interactive Weather Map New forecast layout! Learn more

10-Day Weather Forecast

Advertisements
Track Severe Weather on mobile